Time;durP1;ratioP1;P1;durP2;ratioP2;P2;SDS_P1;SDS_P2;PMS_P1;PMS_P2;Temp;Humidity;BMP_temperature;BMP_pressure;BME280_temperature;BME280_humidity;BME280_pressure;Samples;Min_cycle;Max_cycle;Signal;HPM_P1;HPM_P2
2022/12/18 00:01:31;;;;;;;53.70;22.45;;;-1.80;99.90;;;;;;5050795;28;20033;-70
2022/12/18 00:03:57;;;;;;;52.33;21.40;;;-1.80;99.90;;;;;;5034543;28;20146;-70
2022/12/18 00:06:25;;;;;;;48.22;21.90;;;-1.80;99.90;;;;;;5052202;28;20033;-70
2022/12/18 00:08:50;;;;;;;56.80;23.02;;;-1.70;99.90;;;;;;5056605;28;20033;-70
2022/12/18 00:11:18;;;;;;;57.33;22.83;;;-1.80;99.90;;;;;;5049492;28;20043;-70
2022/12/18 00:13:44;;;;;;;58.40;23.80;;;-1.80;99.90;;;;;;5033073;28;20044;-70
2022/12/18 00:16:15;;;;;;;53.22;21.55;;;-1.90;99.90;;;;;;5044325;28;20036;-70
2022/12/18 00:18:42;;;;;;;55.27;21.67;;;-1.90;99.90;;;;;;5033743;28;20107;-70
2022/12/18 00:21:10;;;;;;;53.80;21.55;;;-1.80;99.90;;;;;;5052376;28;20178;-70
2022/12/18 00:23:36;;;;;;;51.72;20.58;;;-1.80;99.90;;;;;;5033774;28;20052;-70
2022/12/18 00:26:07;;;;;;;45.75;21.45;;;-1.80;99.90;;;;;;5061402;28;20033;-70
2022/12/18 00:28:33;;;;;;;50.85;22.58;;;-1.70;99.90;;;;;;5059886;28;20523;-70
2022/12/18 00:31:08;;;;;;;49.53;20.63;;;-1.80;99.90;;;;;;5064608;28;20100;-70
2022/12/18 00:33:35;;;;;;;49.22;21.08;;;-1.90;99.90;;;;;;5051397;28;20037;-70
2022/12/18 00:36:02;;;;;;;46.63;20.25;;;-1.90;99.90;;;;;;5034335;28;20045;-70
2022/12/18 00:38:27;;;;;;;52.30;21.98;;;-2.00;99.90;;;;;;5048894;28;20048;-70
2022/12/18 00:40:53;;;;;;;53.25;22.02;;;-2.00;99.90;;;;;;5071520;28;20045;-70
2022/12/18 00:43:18;;;;;;;50.63;22.65;;;-2.00;99.90;;;;;;5055256;28;20040;-70
2022/12/18 00:45:45;;;;;;;52.95;22.02;;;-2.00;99.90;;;;;;5071679;28;20040;-70
2022/12/18 00:48:10;;;;;;;53.42;20.98;;;-2.00;99.90;;;;;;5052518;28;20086;-70
2022/12/18 00:50:36;;;;;;;55.25;22.50;;;-2.10;99.90;;;;;;5071496;28;20041;-70
2022/12/18 00:53:02;;;;;;;52.95;22.92;;;-2.10;99.90;;;;;;5053306;28;20041;-70
2022/12/18 00:55:27;;;;;;;50.28;20.15;;;-2.10;99.90;;;;;;5055096;28;20040;-70
2022/12/18 00:57:53;;;;;;;50.95;21.58;;;-2.10;99.90;;;;;;5070477;28;20036;-70
2022/12/18 01:00:18;;;;;;;50.75;21.67;;;-2.10;99.90;;;;;;5070529;28;20039;-70
2022/12/18 01:02:44;;;;;;;55.88;21.98;;;-2.10;99.90;;;;;;5056137;28;20045;-70
2022/12/18 01:05:12;;;;;;;50.95;21.95;;;-2.10;99.90;;;;;;5075031;28;20048;-70
2022/12/18 01:07:37;;;;;;;61.50;23.60;;;-2.10;99.90;;;;;;5057443;28;20093;-70
2022/12/18 01:10:04;;;;;;;53.47;21.60;;;-2.10;99.90;;;;;;5056945;28;20032;-70
2022/12/18 01:12:30;;;;;;;53.97;23.63;;;-2.10;99.90;;;;;;5057383;28;20082;-70
2022/12/18 01:14:56;;;;;;;50.78;21.48;;;-2.20;99.90;;;;;;5075475;28;20566;-70
2022/12/18 01:17:21;;;;;;;54.28;22.65;;;-2.00;99.90;;;;;;5057820;28;20032;-70
2022/12/18 01:19:47;;;;;;;61.00;21.92;;;-2.10;99.90;;;;;;5073730;28;20047;-70
2022/12/18 01:22:13;;;;;;;52.10;21.65;;;-2.10;99.90;;;;;;5075325;28;20044;-70
2022/12/18 01:24:38;;;;;;;50.38;22.65;;;-2.10;99.90;;;;;;5058398;28;20033;-70
2022/12/18 01:27:04;;;;;;;53.35;21.08;;;-2.10;99.90;;;;;;5072870;28;20036;-70
2022/12/18 01:29:29;;;;;;;47.15;19.23;;;-2.20;99.90;;;;;;5072297;28;20047;-70
2022/12/18 01:31:56;;;;;;;49.67;21.30;;;-2.20;99.90;;;;;;5057113;28;20040;-70
2022/12/18 01:34:23;;;;;;;54.72;22.85;;;-2.20;99.90;;;;;;5074711;28;20063;-70
2022/12/18 01:36:48;;;;;;;52.78;23.00;;;-2.20;99.90;;;;;;5073239;28;20037;-70
2022/12/18 01:39:15;;;;;;;49.17;22.00;;;-2.20;99.90;;;;;;5056580;28;20072;-70
2022/12/18 01:44:53;;;;;;;54.88;21.92;;;-2.40;99.90;;;;;;5074524;28;20053;-70
2022/12/18 01:47:39;;;;;;;51.25;21.38;;;-2.40;99.90;;;;;;5073512;28;20037;-70
2022/12/18 01:50:21;;;;;;;55.05;23.33;;;-2.40;99.90;;;;;;5072790;28;20484;-70
2022/12/18 01:52:51;;;;;;;53.85;22.95;;;-2.40;99.90;;;;;;5057787;28;20044;-70
2022/12/18 01:55:19;;;;;;;53.50;22.30;;;-2.40;99.90;;;;;;5074411;28;20055;-70
2022/12/18 01:57:46;;;;;;;48.47;21.35;;;-2.50;99.90;;;;;;5073223;28;20090;-70
2022/12/18 02:00:19;;;;;;;58.85;24.00;;;-2.50;99.90;;;;;;5056095;28;20128;-70
2022/12/18 02:02:46;;;;;;;54.42;22.70;;;-2.60;99.90;;;;;;5057603;28;20046;-70
2022/12/18 02:05:18;;;;;;;57.08;23.30;;;-2.50;99.90;;;;;;5057353;28;20131;-70
2022/12/18 02:07:50;;;;;;;60.03;25.60;;;-2.50;99.90;;;;;;5056173;28;20041;-70
2022/12/18 02:10:33;;;;;;;53.58;21.77;;;-2.50;99.90;;;;;;5056208;28;20131;-70
2022/12/18 02:13:19;;;;;;;57.17;22.55;;;-2.40;99.90;;;;;;5057429;28;20047;-70
2022/12/18 02:15:57;;;;;;;53.80;22.48;;;-2.30;99.90;;;;;;5072834;28;20055;-70
2022/12/18 02:18:39;;;;;;;53.22;24.02;;;-2.40;99.90;;;;;;5055116;28;20036;-70
2022/12/18 02:21:32;;;;;;;55.40;24.83;;;-2.40;99.90;;;;;;5041668;28;20091;-70
2022/12/18 02:24:07;;;;;;;58.35;23.67;;;-2.40;99.90;;;;;;5013143;28;20060;-70
2022/12/18 02:26:40;;;;;;;53.45;24.13;;;-2.40;99.90;;;;;;5055916;28;20036;-70
2022/12/18 02:29:11;;;;;;;56.65;23.98;;;-2.50;99.90;;;;;;5072335;28;20040;-70
2022/12/18 02:31:45;;;;;;;55.63;22.52;;;-2.50;99.90;;;;;;5069861;28;20037;-70
2022/12/18 02:34:12;;;;;;;58.95;24.75;;;-2.30;99.90;;;;;;5057146;28;20032;-70
2022/12/18 02:36:40;;;;;;;60.65;25.10;;;-2.40;99.90;;;;;;5072926;28;20050;-70
2022/12/18 02:39:10;;;;;;;57.08;25.67;;;-2.40;99.90;;;;;;5056899;28;20531;-70
2022/12/18 02:41:36;;;;;;;65.28;25.20;;;-2.50;99.90;;;;;;5072306;28;20392;-70
2022/12/18 02:44:08;;;;;;;64.75;26.42;;;-2.60;99.90;;;;;;5057102;28;20036;-70
2022/12/18 02:46:39;;;;;;;64.32;26.13;;;-2.60;99.90;;;;;;5055780;28;20186;-70
2022/12/18 02:49:34;;;;;;;64.25;25.92;;;-2.60;99.90;;;;;;5056867;28;20573;-70
2022/12/18 02:52:34;;;;;;;62.75;24.80;;;-2.60;99.90;;;;;;5053655;28;20111;-70
2022/12/18 02:55:12;;;;;;;58.33;24.65;;;-2.50;99.90;;;;;;5055233;28;20517;-70
2022/12/18 02:57:50;;;;;;;58.28;24.75;;;-2.50;99.90;;;;;;5056533;28;20068;-70
2022/12/18 03:00:22;;;;;;;58.03;25.30;;;-2.50;99.90;;;;;;5071774;28;20075;-70
2022/12/18 03:02:51;;;;;;;62.28;26.02;;;-2.60;99.90;;;;;;5073150;28;20051;-70
2022/12/18 03:05:22;;;;;;;58.60;23.08;;;-2.70;99.90;;;;;;5072947;28;20413;-70
2022/12/18 03:08:03;;;;;;;57.60;24.23;;;-2.60;99.90;;;;;;5055624;28;20407;-70
2022/12/18 03:10:32;;;;;;;62.15;24.77;;;-2.60;99.90;;;;;;5071485;28;20036;-70
2022/12/18 03:13:08;;;;;;;60.22;25.17;;;-2.70;99.90;;;;;;5072816;28;20041;-70
2022/12/18 03:15:49;;;;;;;65.32;26.60;;;-2.70;99.90;;;;;;5073156;28;20051;-70
2022/12/18 03:18:26;;;;;;;60.20;25.75;;;-2.70;99.90;;;;;;5054414;28;20122;-70
2022/12/18 03:20:55;;;;;;;56.53;23.77;;;-2.80;99.90;;;;;;5070421;28;20040;-71
2022/12/18 03:23:25;;;;;;;56.42;23.75;;;-2.90;99.90;;;;;;5073019;28;20392;-70
2022/12/18 03:25:55;;;;;;;55.90;24.77;;;-2.90;99.90;;;;;;5072428;28;20519;-70
2022/12/18 03:28:22;;;;;;;52.70;22.95;;;-2.90;99.90;;;;;;5053917;28;20111;-70
2022/12/18 03:30:55;;;;;;;63.60;25.80;;;-2.90;99.90;;;;;;5071082;28;20086;-70
2022/12/18 03:33:29;;;;;;;57.47;23.52;;;-2.90;99.90;;;;;;5056201;28;20395;-70
2022/12/18 03:35:55;;;;;;;57.25;25.27;;;-3.00;99.90;;;;;;5072466;28;20052;-70
2022/12/18 03:38:21;;;;;;;56.22;23.38;;;-3.00;99.90;;;;;;5071073;28;20040;-70
2022/12/18 03:40:56;;;;;;;57.00;23.17;;;-2.90;99.90;;;;;;5071050;28;20115;-70
2022/12/18 03:44:00;;;;;;;60.55;25.67;;;-2.80;99.90;;;;;;5072334;28;20493;-70
2022/12/18 03:46:39;;;;;;;52.00;21.02;;;-2.80;99.90;;;;;;5053865;28;20123;-70
2022/12/18 03:49:33;;;;;;;62.50;22.83;;;-2.80;99.90;;;;;;5037835;28;20543;-71
2022/12/18 03:52:13;;;;;;;56.10;22.75;;;-2.80;99.90;;;;;;5059000;28;20044;-70
2022/12/18 03:54:40;;;;;;;50.58;22.33;;;-2.80;99.90;;;;;;5055521;28;20051;-70
2022/12/18 03:57:16;;;;;;;64.50;24.23;;;-2.90;99.90;;;;;;5054359;28;20040;-71
2022/12/18 03:59:45;;;;;;;62.78;23.77;;;-3.00;99.90;;;;;;5069657;28;20446;-71
2022/12/18 04:02:11;;;;;;;54.60;22.05;;;-3.00;99.90;;;;;;5053602;28;20488;-71
2022/12/18 04:04:38;;;;;;;53.50;23.08;;;-3.00;99.90;;;;;;5073100;28;20045;-71
2022/12/18 04:07:05;;;;;;;57.80;22.45;;;-3.00;99.90;;;;;;5054257;28;20481;-71
2022/12/18 04:09:33;;;;;;;54.97;23.63;;;-3.00;99.90;;;;;;5055608;28;20044;-71
2022/12/18 04:11:59;;;;;;;55.35;23.65;;;-2.90;99.90;;;;;;5069673;28;20037;-71
2022/12/18 04:14:24;;;;;;;53.88;23.05;;;-3.00;99.90;;;;;;5044022;28;20044;-71
2022/12/18 04:16:50;;;;;;;50.53;21.15;;;-3.00;99.90;;;;;;5052046;28;20040;-71
2022/12/18 04:19:15;;;;;;;49.00;21.45;;;-3.00;99.90;;;;;;5063142;28;20075;-71
2022/12/18 04:21:41;;;;;;;57.65;23.90;;;-3.00;99.90;;;;;;5052685;28;20121;-71
2022/12/18 04:24:06;;;;;;;48.92;21.77;;;-3.00;99.90;;;;;;5060457;28;20037;-71
2022/12/18 04:26:32;;;;;;;53.85;20.58;;;-3.00;99.90;;;;;;5071390;28;20032;-71
2022/12/18 04:28:57;;;;;;;57.72;22.65;;;-3.00;99.90;;;;;;5050618;28;20085;-71
2022/12/18 04:31:23;;;;;;;48.80;20.65;;;-3.10;99.90;;;;;;5070953;28;20497;-71
2022/12/18 04:33:48;;;;;;;54.83;22.67;;;-3.20;99.90;;;;;;5033871;28;20036;-71
2022/12/18 04:36:14;;;;;;;48.83;21.23;;;-3.30;99.90;;;;;;5070314;28;20079;-71
2022/12/18 04:38:40;;;;;;;49.47;20.60;;;-3.30;99.90;;;;;;5055995;28;20048;-71
2022/12/18 04:41:05;;;;;;;48.10;22.13;;;-3.40;99.90;;;;;;5075747;28;20555;-71
2022/12/18 04:43:32;;;;;;;46.03;20.45;;;-3.30;99.90;;;;;;5074630;28;20043;-71
2022/12/18 04:46:05;;;;;;;54.40;22.38;;;-3.40;99.90;;;;;;5043758;28;20402;-71
2022/12/18 04:48:31;;;;;;;46.58;20.85;;;-3.40;99.90;;;;;;5042132;28;20029;-71
2022/12/18 04:50:57;;;;;;;44.85;20.00;;;-3.40;99.90;;;;;;5074505;28;20086;-71
2022/12/18 04:53:22;;;;;;;48.22;20.13;;;-3.40;99.90;;;;;;5074747;28;20061;-71
2022/12/18 04:55:48;;;;;;;47.05;20.35;;;-3.40;99.90;;;;;;5048263;28;20072;-71
2022/12/18 04:58:13;;;;;;;41.72;19.83;;;-3.40;99.90;;;;;;5074373;28;20051;-71
2022/12/18 05:00:39;;;;;;;44.65;21.33;;;-3.40;99.90;;;;;;5071112;28;20123;-71
2022/12/18 05:03:04;;;;;;;45.88;19.38;;;-3.40;99.90;;;;;;5073304;28;20127;-71
2022/12/18 05:05:30;;;;;;;41.63;18.63;;;-3.50;99.90;;;;;;5072690;28;20051;-71
2022/12/18 05:07:56;;;;;;;36.85;18.55;;;-3.50;99.90;;;;;;5035437;28;20037;-71
2022/12/18 05:10:21;;;;;;;40.03;18.02;;;-3.50;99.90;;;;;;5060575;28;20033;-72
2022/12/18 05:12:59;;;;;;;40.35;19.70;;;-3.50;99.90;;;;;;5057560;28;20041;-72
2022/12/18 05:15:31;;;;;;;38.85;17.65;;;-3.40;99.90;;;;;;5038595;28;20648;-72
2022/12/18 05:17:57;;;;;;;;;;;-3.50;99.90;;;;;;5055488;28;20095;-72
2022/12/18 05:20:23;;;;;;;40.88;18.83;;;-3.50;99.90;;;;;;5054968;28;19916;-72
2022/12/18 05:22:48;;;;;;;36.72;16.00;;;-3.50;99.90;;;;;;5038248;28;20123;-72
2022/12/18 05:25:14;;;;;;;35.28;16.83;;;-3.40;99.90;;;;;;5054907;28;20466;-72
2022/12/18 05:27:40;;;;;;;39.92;16.85;;;-3.50;99.90;;;;;;5060826;28;20045;-72
2022/12/18 05:30:06;;;;;;;35.75;16.38;;;-3.40;99.90;;;;;;5073700;28;20089;-72
2022/12/18 05:32:32;;;;;;;37.30;17.00;;;-3.40;99.90;;;;;;5073586;28;20048;-72
2022/12/18 05:34:58;;;;;;;37.50;18.77;;;-3.40;99.90;;;;;;5073354;28;20041;-72
2022/12/18 05:37:23;;;;;;;39.55;16.88;;;-3.50;99.90;;;;;;5073576;28;20048;-72
2022/12/18 05:39:49;;;;;;;41.92;17.98;;;-3.50;99.90;;;;;;5058420;28;20040;-72
2022/12/18 05:42:14;;;;;;;35.75;16.25;;;-3.60;99.90;;;;;;5056773;28;20040;-72
2022/12/18 05:44:40;;;;;;;36.05;17.42;;;-3.50;99.90;;;;;;5059479;28;20462;-72
2022/12/18 05:47:06;;;;;;;34.05;16.55;;;-3.50;99.90;;;;;;5047135;28;20041;-72
2022/12/18 05:49:31;;;;;;;37.58;16.38;;;-3.50;99.90;;;;;;5043799;28;20071;-72
2022/12/18 05:51:57;;;;;;;33.58;15.55;;;-3.40;99.90;;;;;;5056695;28;20400;-72
2022/12/18 05:54:22;;;;;;;30.77;14.57;;;-3.40;99.90;;;;;;5049239;28;20084;-72
2022/12/18 05:56:48;;;;;;;32.90;15.07;;;-3.30;99.90;;;;;;5056548;28;20049;-72
2022/12/18 05:59:14;;;;;;;30.70;14.55;;;-3.30;99.90;;;;;;5056442;28;20036;-72
2022/12/18 06:01:40;;;;;;;32.65;16.27;;;-3.40;99.90;;;;;;5070220;28;20124;-72
2022/12/18 06:04:06;;;;;;;30.45;14.95;;;-3.50;99.90;;;;;;5069930;28;20123;-73
2022/12/18 06:06:31;;;;;;;31.42;16.20;;;-3.60;99.90;;;;;;5056217;28;20564;-73
2022/12/18 06:08:57;;;;;;;32.92;16.58;;;-3.50;99.90;;;;;;5073330;28;20037;-72
2022/12/18 06:11:25;;;;;;;32.60;15.80;;;-3.60;99.90;;;;;;5057540;28;20064;-72
2022/12/18 06:13:52;;;;;;;35.72;17.52;;;-3.70;99.90;;;;;;5055117;28;20032;-72
2022/12/18 06:16:18;;;;;;;32.30;15.27;;;-3.80;99.90;;;;;;5055633;28;20084;-73
2022/12/18 06:18:44;;;;;;;33.13;16.63;;;-3.80;99.90;;;;;;5047737;28;20073;-73
2022/12/18 06:21:09;;;;;;;36.03;15.57;;;-3.90;99.90;;;;;;5054099;28;20103;-73
2022/12/18 06:23:35;;;;;;;32.40;16.30;;;-3.80;99.90;;;;;;5037320;28;20041;-72
2022/12/18 06:26:09;;;;;;;36.15;17.02;;;-3.90;99.90;;;;;;5069629;28;20041;-73
2022/12/18 06:28:34;;;;;;;33.03;16.63;;;-3.90;99.90;;;;;;5068898;28;20381;-73
2022/12/18 06:31:01;;;;;;;32.67;16.05;;;-3.90;99.90;;;;;;5037273;28;20036;-73
2022/12/18 06:33:28;;;;;;;30.70;15.43;;;-3.80;99.90;;;;;;5060315;28;20032;-73
2022/12/18 06:35:54;;;;;;;34.53;16.23;;;-3.70;99.90;;;;;;5069331;28;20040;-73
2022/12/18 06:38:20;;;;;;;34.22;15.82;;;-3.80;99.90;;;;;;5055844;28;20051;-73
2022/12/18 06:40:45;;;;;;;30.05;15.10;;;-3.70;99.90;;;;;;5056833;28;20044;-73
2022/12/18 06:43:11;;;;;;;34.05;15.40;;;-3.70;99.90;;;;;;5055696;28;20401;-73
2022/12/18 06:45:36;;;;;;;36.17;15.52;;;-3.70;99.90;;;;;;5051441;28;20069;-73
2022/12/18 06:48:02;;;;;;;36.13;16.92;;;-3.70;99.90;;;;;;5054552;28;20036;-73
2022/12/18 06:50:27;;;;;;;30.25;14.80;;;-3.80;99.90;;;;;;5054440;28;20032;-73
2022/12/18 06:52:53;;;;;;;28.67;14.13;;;-3.80;99.90;;;;;;5055553;28;20033;-72
2022/12/18 06:55:18;;;;;;;31.13;14.70;;;-3.80;99.90;;;;;;5050941;28;20120;-73
2022/12/18 06:57:44;;;;;;;30.15;15.18;;;-3.80;99.90;;;;;;5054351;28;20041;-73
2022/12/18 07:00:10;;;;;;;28.73;14.55;;;-3.80;99.90;;;;;;5067459;28;20465;-73
2022/12/18 07:02:36;;;;;;;30.23;14.27;;;-3.80;99.90;;;;;;5070968;28;20112;-72
2022/12/18 07:05:02;;;;;;;28.73;14.60;;;-3.80;99.90;;;;;;5070392;28;20041;-73
2022/12/18 07:07:27;;;;;;;31.55;15.05;;;-3.80;99.90;;;;;;5071992;28;20040;-73
2022/12/18 07:09:53;;;;;;;28.70;14.50;;;-3.80;99.90;;;;;;5071904;28;20043;-73
2022/12/18 07:12:19;;;;;;;31.67;14.57;;;-3.70;99.90;;;;;;5055098;28;20408;-73
2022/12/18 07:14:44;;;;;;;28.20;14.05;;;-3.70;99.90;;;;;;5051352;28;20090;-73
2022/12/18 07:17:10;;;;;;;28.40;14.27;;;-3.70;99.90;;;;;;5024973;28;20128;-73
2022/12/18 07:19:35;;;;;;;31.48;15.55;;;-3.70;99.90;;;;;;5056513;28;20037;-73
2022/12/18 07:22:01;;;;;;;33.60;15.20;;;-3.80;99.90;;;;;;5050796;28;20036;-72
2022/12/18 07:24:27;;;;;;;29.65;14.43;;;-3.90;99.90;;;;;;5072462;28;20051;-73
2022/12/18 07:26:53;;;;;;;30.23;14.77;;;-3.90;99.90;;;;;;5070646;28;20397;-73
2022/12/18 07:29:18;;;;;;;26.27;13.63;;;-3.90;99.90;;;;;;5049679;28;20044;-73
2022/12/18 07:31:44;;;;;;;30.02;14.48;;;-4.00;99.90;;;;;;5071935;28;20044;-73
2022/12/18 07:34:14;;;;;;;29.00;14.63;;;-3.90;99.90;;;;;;5069768;28;20046;-73
2022/12/18 07:36:40;;;;;;;29.60;14.10;;;-4.00;99.90;;;;;;5068975;28;20127;-73
2022/12/18 07:39:06;;;;;;;27.75;14.05;;;-4.00;99.90;;;;;;5055715;28;20076;-73
2022/12/18 07:41:31;;;;;;;29.90;14.95;;;-4.00;99.90;;;;;;5054835;28;20041;-73
2022/12/18 07:43:57;;;;;;;26.20;12.13;;;-4.00;99.90;;;;;;5068832;28;20523;-73
2022/12/18 07:46:23;;;;;;;28.63;15.07;;;-4.00;99.90;;;;;;5070866;28;20032;-73
2022/12/18 07:48:48;;;;;;;29.17;13.30;;;-4.00;99.90;;;;;;5068126;28;20036;-73
2022/12/18 07:51:14;;;;;;;25.80;14.18;;;-4.00;99.90;;;;;;5057195;28;20043;-73
2022/12/18 07:53:41;;;;;;;23.65;12.07;;;-4.00;99.90;;;;;;5023133;28;20085;-73
2022/12/18 07:56:09;;;;;;;27.40;13.70;;;-3.90;99.90;;;;;;5045472;28;20406;-74
2022/12/18 07:58:35;;;;;;;29.27;14.77;;;-3.90;99.90;;;;;;5040262;28;20405;-73
2022/12/18 08:01:06;;;;;;;27.52;14.60;;;-4.00;99.90;;;;;;5055296;28;20036;-73
2022/12/18 08:03:31;;;;;;;24.58;13.27;;;-4.00;99.90;;;;;;5044391;28;20052;-72
2022/12/18 08:06:01;;;;;;;26.75;13.27;;;-4.00;99.90;;;;;;5060477;28;20045;-73
2022/12/18 08:08:28;;;;;;;24.20;12.45;;;-4.00;99.90;;;;;;5015411;28;20052;-73
2022/12/18 08:10:53;;;;;;;22.33;12.15;;;-4.00;99.90;;;;;;5049889;28;20443;-73
2022/12/18 08:13:19;;;;;;;24.95;13.95;;;-3.90;99.90;;;;;;5039548;28;20037;-74
2022/12/18 08:15:45;;;;;;;25.23;12.75;;;-3.90;99.90;;;;;;5051843;28;20048;-73
2022/12/18 08:18:10;;;;;;;24.33;11.98;;;-3.90;99.90;;;;;;5036787;28;20079;-73
2022/12/18 08:20:36;;;;;;;26.30;12.68;;;-3.80;99.90;;;;;;5071668;28;20032;-73
2022/12/18 08:23:01;;;;;;;24.25;13.32;;;-3.80;99.90;;;;;;5049669;28;20498;-73
2022/12/18 08:25:27;;;;;;;25.80;12.38;;;-3.90;99.90;;;;;;5035820;28;20211;-73
2022/12/18 08:27:52;;;;;;;25.50;12.98;;;-3.90;99.90;;;;;;5049752;28;20044;-74
2022/12/18 08:30:18;;;;;;;25.25;12.07;;;-3.80;99.90;;;;;;5051293;28;20041;-73
2022/12/18 08:32:43;;;;;;;25.83;12.73;;;-3.80;99.90;;;;;;5040974;28;20032;-73
2022/12/18 08:35:11;;;;;;;31.08;15.55;;;-3.70;99.90;;;;;;5051944;28;20139;-74
2022/12/18 08:37:37;;;;;;;32.22;16.80;;;-3.70;99.90;;;;;;5071464;28;20519;-73
2022/12/18 08:40:03;;;;;;;25.80;12.18;;;-3.70;99.90;;;;;;5055339;28;20129;-74
2022/12/18 08:45:12;;;;;;;19.23;10.63;;;-3.70;99.90;;;;;;5061056;28;20045;-73
2022/12/18 08:47:38;;;;;;;21.08;11.30;;;-3.70;99.90;;;;;;5050054;28;20041;-73
2022/12/18 08:50:04;;;;;;;23.80;11.70;;;-3.60;99.90;;;;;;5052277;28;20389;-74
2022/12/18 08:52:32;;;;;;;23.02;12.00;;;-3.60;99.90;;;;;;5069916;28;20037;-74
2022/12/18 08:54:57;;;;;;;22.27;11.82;;;-3.60;99.90;;;;;;5055996;28;20382;-73
2022/12/18 08:57:23;;;;;;;21.50;11.23;;;-3.60;99.90;;;;;;5050818;28;20048;-73
2022/12/18 08:59:48;;;;;;;19.73;10.40;;;-3.50;99.90;;;;;;5028302;28;20119;-72
2022/12/18 09:02:14;;;;;;;19.23;9.25;;;-3.50;99.90;;;;;;5059970;28;20055;-72
2022/12/18 09:04:39;;;;;;;19.08;10.00;;;-3.40;99.90;;;;;;5034502;28;20468;-73
2022/12/18 09:07:05;;;;;;;19.90;10.68;;;-3.30;99.90;;;;;;5054240;28;20047;-73
2022/12/18 09:09:31;;;;;;;20.52;9.38;;;-3.20;99.90;;;;;;5047007;28;20488;-73
2022/12/18 09:11:56;;;;;;;19.88;8.88;;;-3.10;99.90;;;;;;5029077;28;20028;-73
2022/12/18 09:14:22;;;;;;;16.38;7.70;;;-3.00;99.90;;;;;;5052490;28;20086;-73
2022/12/18 09:16:47;;;;;;;18.85;9.38;;;-3.00;99.90;;;;;;5052261;28;20047;-73
2022/12/18 09:19:13;;;;;;;19.30;10.57;;;-3.10;99.90;;;;;;5044242;28;20072;-73
2022/12/18 09:21:38;;;;;;;19.70;10.30;;;-3.10;99.90;;;;;;5033556;28;20383;-74
2022/12/18 09:24:05;;;;;;;23.60;10.38;;;-3.10;99.90;;;;;;5036566;28;20041;-73
2022/12/18 09:26:30;;;;;;;23.30;10.55;;;-3.10;99.90;;;;;;5052560;28;20048;-73
2022/12/18 09:28:56;;;;;;;22.13;11.07;;;-3.10;99.90;;;;;;5056978;28;20033;-73
2022/12/18 09:31:24;;;;;;;19.55;10.90;;;-3.10;99.90;;;;;;5054392;28;20032;-73
2022/12/18 09:33:50;;;;;;;24.50;13.88;;;-3.10;99.90;;;;;;5058115;28;20404;-73
2022/12/18 09:36:17;;;;;;;24.02;12.63;;;-3.10;99.90;;;;;;5070218;28;20036;-72
2022/12/18 09:38:43;;;;;;;20.13;12.10;;;-3.00;99.90;;;;;;5058046;28;20048;-71
2022/12/18 09:41:18;;;;;;;19.58;11.40;;;-2.90;99.90;;;;;;5069499;28;20033;-71
2022/12/18 09:43:51;;;;;;;19.30;11.10;;;-2.90;99.90;;;;;;5071781;28;20403;-78
2022/12/18 09:46:35;;;;;;;30.35;12.63;;;-2.80;99.90;;;;;;5056598;28;20066;-71
2022/12/18 09:49:04;;;;;;;20.30;12.05;;;-2.60;99.90;;;;;;5045584;28;20053;-72
2022/12/18 09:51:36;;;;;;;23.95;11.82;;;-2.70;99.90;;;;;;5043317;28;20041;-72
2022/12/18 09:54:11;;;;;;;22.88;10.68;;;-2.60;99.90;;;;;;5055174;28;20117;-72
2022/12/18 09:56:39;;;;;;;18.30;10.45;;;-2.60;99.90;;;;;;5073174;28;20045;-71
2022/12/18 09:59:05;;;;;;;19.50;10.60;;;-2.50;99.90;;;;;;5052009;28;20493;-72
2022/12/18 10:01:32;;;;;;;17.75;10.65;;;-2.50;99.90;;;;;;5054467;28;20035;-72
2022/12/18 10:03:59;;;;;;;17.10;9.98;;;-2.60;99.90;;;;;;5053675;28;20053;-72
2022/12/18 10:06:36;;;;;;;19.45;11.40;;;-2.50;99.90;;;;;;5053201;28;20079;-72
2022/12/18 10:09:40;;;;;;;21.05;11.15;;;-2.30;99.90;;;;;;5051760;28;20079;-72
2022/12/18 10:12:34;;;;;;;18.92;11.10;;;-2.30;99.90;;;;;;5024385;28;20049;-72
2022/12/18 10:15:26;;;;;;;20.17;10.52;;;-2.20;99.90;;;;;;5056956;28;20040;-72
2022/12/18 10:18:15;;;;;;;20.58;10.95;;;-2.30;99.90;;;;;;5068379;28;20124;-72
2022/12/18 10:20:48;;;;;;;18.80;9.88;;;-2.30;99.90;;;;;;5072781;28;20041;-72
2022/12/18 10:23:26;;;;;;;16.65;9.60;;;-2.30;99.90;;;;;;5052984;28;20125;-72
2022/12/18 10:26:04;;;;;;;15.32;9.38;;;-2.40;99.90;;;;;;5056636;28;20051;-72
2022/12/18 10:28:32;;;;;;;16.80;9.40;;;-2.30;99.90;;;;;;5063530;28;20079;-72
2022/12/18 10:30:58;;;;;;;16.08;9.27;;;-2.30;99.90;;;;;;5046568;28;20033;-72
2022/12/18 10:33:29;;;;;;;16.73;9.63;;;-2.20;99.90;;;;;;5024507;28;20045;-72
2022/12/18 10:35:55;;;;;;;16.95;8.75;;;-2.20;99.90;;;;;;5035692;28;20081;-72
2022/12/18 10:38:23;;;;;;;16.55;8.48;;;-2.20;99.90;;;;;;5043910;28;20099;-72
2022/12/18 10:41:25;;;;;;;15.73;8.23;;;-2.20;99.90;;;;;;5073538;28;20384;-72
2022/12/18 10:44:21;;;;;;;14.43;8.37;;;-2.20;99.90;;;;;;5050272;28;20053;-72
2022/12/18 10:46:50;;;;;;;15.02;7.30;;;-2.10;99.90;;;;;;5054157;28;20036;-72
2022/12/18 10:49:25;;;;;;;15.30;7.78;;;-2.20;99.90;;;;;;5065721;28;20047;-72
2022/12/18 10:51:51;;;;;;;14.23;8.48;;;-2.10;99.90;;;;;;5073515;28;20036;-73
2022/12/18 10:54:22;;;;;;;15.98;8.55;;;-2.10;99.90;;;;;;5052031;28;20041;-72
2022/12/18 10:56:48;;;;;;;24.38;10.95;;;-2.20;99.90;;;;;;5048969;28;20041;-72
2022/12/18 10:59:16;;;;;;;17.05;8.27;;;-2.10;99.90;;;;;;5037371;28;20036;-72
2022/12/18 11:01:50;;;;;;;15.65;8.82;;;-2.10;99.90;;;;;;5049644;28;20443;-72
2022/12/18 11:04:23;;;;;;;15.25;8.43;;;-2.10;99.90;;;;;;5056095;28;20405;-72
2022/12/18 11:07:10;;;;;;;13.38;8.02;;;-2.20;99.90;;;;;;5052061;28;20041;-72
2022/12/18 11:09:37;;;;;;;15.50;7.88;;;-2.20;99.90;;;;;;5044133;28;20029;-72
2022/12/18 11:12:18;;;;;;;15.13;8.02;;;-2.10;99.90;;;;;;5072591;28;20032;-72
2022/12/18 11:14:50;;;;;;;13.73;7.50;;;-2.00;99.90;;;;;;5042883;28;20037;-72
2022/12/18 11:17:34;;;;;;;13.75;7.25;;;-2.00;99.90;;;;;;5070589;28;20044;-72
2022/12/18 11:20:23;;;;;;;12.85;6.93;;;-1.90;99.90;;;;;;5053549;28;20105;-72
2022/12/18 11:23:00;;;;;;;12.75;6.43;;;-1.90;99.90;;;;;;5049540;28;20542;-72
2022/12/18 11:25:29;;;;;;;12.00;6.53;;;-1.90;99.90;;;;;;5051893;28;20037;-72
2022/12/18 11:27:57;;;;;;;12.18;6.95;;;-1.90;99.90;;;;;;5052878;28;20553;-72
2022/12/18 11:30:31;;;;;;;12.50;6.70;;;-1.80;99.90;;;;;;5051162;28;20036;-72
2022/12/18 11:33:09;;;;;;;12.55;7.07;;;-1.70;99.90;;;;;;5072496;28;20435;-72
2022/12/18 11:35:50;;;;;;;14.77;7.47;;;-1.70;99.90;;;;;;5054982;28;20048;-72
2022/12/18 11:38:32;;;;;;;13.43;6.70;;;-1.70;99.90;;;;;;5057309;28;20044;-72
2022/12/18 11:44:26;;;;;;;14.68;7.03;;;-1.70;99.90;;;;;;5032056;28;20049;-72
2022/12/18 11:47:09;;;;;;;11.73;6.43;;;-1.50;99.90;;;;;;5043986;28;20047;-72
2022/12/18 11:49:35;;;;;;;15.13;7.03;;;-1.60;99.90;;;;;;5058824;28;20485;-72
2022/12/18 11:52:16;;;;;;;13.40;6.15;;;-1.60;99.90;;;;;;5067062;28;20037;-72
2022/12/18 11:54:41;;;;;;;11.30;5.57;;;-1.50;99.90;;;;;;5055608;28;20373;-72
2022/12/18 11:57:19;;;;;;;11.10;5.40;;;-1.60;99.90;;;;;;5054146;28;20055;-72
2022/12/18 12:00:01;;;;;;;11.50;5.45;;;-1.50;99.90;;;;;;5065571;28;20041;-70
2022/12/18 12:03:14;;;;;;;13.07;5.38;;;-1.50;99.90;;;;;;5053948;28;20040;-71
2022/12/18 12:05:44;;;;;;;;;;;-1.50;99.90;;;;;;5047451;28;20057;-73
2022/12/18 12:08:15;;;;;;;10.27;4.78;;;-1.40;99.90;;;;;;5040750;28;19917;-73
2022/12/18 12:11:03;;;;;;;11.10;5.20;;;-1.40;99.90;;;;;;5067116;28;20404;-73
2022/12/18 12:13:32;;;;;;;10.90;5.18;;;-1.30;99.90;;;;;;5056855;28;20309;-72
2022/12/18 12:16:18;;;;;;;11.77;5.47;;;-1.30;99.90;;;;;;5041993;28;20040;-73
2022/12/18 12:18:55;;;;;;;13.13;5.53;;;-1.30;99.90;;;;;;5041052;28;20037;-73
2022/12/18 12:21:41;;;;;;;12.50;5.55;;;-1.20;99.90;;;;;;5048902;28;20469;-73
2022/12/18 12:24:33;;;;;;;9.95;5.10;;;-1.20;99.90;;;;;;5035050;28;20511;-73
2022/12/18 12:27:11;;;;;;;10.00;5.20;;;-1.20;99.90;;;;;;5040163;28;20036;-73
2022/12/18 12:30:13;;;;;;;11.55;5.40;;;-1.20;99.90;;;;;;5047258;28;20050;-73
2022/12/18 12:32:52;;;;;;;11.25;5.10;;;-1.20;99.90;;;;;;5036021;28;20064;-73
2022/12/18 12:35:54;;;;;;;11.25;6.03;;;-1.10;99.90;;;;;;5034967;28;20071;-73
2022/12/18 12:38:27;;;;;;;10.75;5.00;;;-1.10;99.90;;;;;;5031517;28;20052;-73
2022/12/18 12:41:04;;;;;;;11.07;5.18;;;-1.10;99.90;;;;;;5058408;28;20392;-73
2022/12/18 12:43:38;;;;;;;10.25;4.97;;;-1.10;99.90;;;;;;5058711;28;20041;-73
2022/12/18 12:46:10;;;;;;;11.43;5.10;;;-1.10;99.90;;;;;;5065787;28;20052;-74
2022/12/18 12:48:52;;;;;;;13.95;6.65;;;-1.00;99.90;;;;;;5046988;28;20127;-73
2022/12/18 12:51:22;;;;;;;11.35;5.97;;;-1.00;99.90;;;;;;5050755;28;20051;-73
2022/12/18 12:53:49;;;;;;;9.48;3.53;;;-1.00;99.90;;;;;;5034714;28;20040;-73
2022/12/18 12:56:18;;;;;;;12.15;6.55;;;-0.80;99.90;;;;;;5034705;28;20497;-73